Wainwright Airport

About
Name: Wainwright Airport
Identifier:  AWI/PAWI
Local Time:  18. Aug 05:00 AKDT
Location
Flights per Day
0 flights
Distance: 110km (68mi)
Punctuality
66% (0 flights per day delayed)
Delay Average: 94 minutes
Current Weather
 8 C (Humidity: 53%)
  4kt (7km/h / 4mph) from 290°
  16km (10 mi.)
 
 METAR PAWI 181153Z AUTO 29004KT 10SM CLR 08/M01 A3063 RMK SLP372 T00781006 10094 20072 58013 TSNO VIA AUTODIAL

Current Flights

Departures
Number Departure To Airline
Arrivals
Number Arrival From Airline

Current Delays

Departures
N/A
Arrivals
N/A

Destinations

Top Destinations
Airport Flights
per week
Seats
per week
  Kotzebue (OTZ) 0 - 0 0

Airlines & Planes

Top Airlines
Airline Flights
per Day
Seats
per Day
Bering Air 0 -
Top Plane Types
Model Flights Seats
Beech 1900D 0.0/day - 0